Bidford-on-avon, United Kingdom
Current Conditions -  °F | °C
As of 9:50 AM on Wednesday 26 Nov 2014 (Local Time) from EGBB Reporting Station
Haze Haze  
Wind Chill: 41°   Ceiling: 200
Heat Index: 45°   Visibility: 1.2mi
Dew Point: 45°   Wind: 6mph
Humidity: 100%   Direction: 10°N
Pressure: 29.88"   Gusts: NA
Location:  52.17°N, 1.86°W
Report Text: EGBB 260950Z 01005KT 2000 BR OVC002 07/07 Q1012
Loading
Personal Weather Stations






























Interactive Weather Map New forecast layout! Learn more

10-Day Weather Forecast

Advertisements
Track Severe Weather on mobile